Time;durP1;ratioP1;P1;durP2;ratioP2;P2;SDS_P1;SDS_P2;PMS_P1;PMS_P2;Temp;Humidity;BMP_temperature;BMP_pressure;BME280_temperature;BME280_humidity;BME280_pressure;Samples;Min_cycle;Max_cycle;Signal;HPM_P1;HPM_P2
2021/08/04 00:00:58;;;;;;;2.37;2.17;;;14.70;99.90;;;;;;5074368;28;20443;-58
2021/08/04 00:03:25;;;;;;;2.67;1.87;;;14.70;99.90;;;;;;5073631;28;20478;-57
2021/08/04 00:05:52;;;;;;;3.60;2.50;;;14.70;99.90;;;;;;5074338;28;20540;-57
2021/08/04 00:08:21;;;;;;;3.30;1.90;;;14.80;99.90;;;;;;5074213;28;20459;-57
2021/08/04 00:10:48;;;;;;;2.13;1.70;;;14.80;99.90;;;;;;5074203;28;20854;-57
2021/08/04 00:13:15;;;;;;;1.77;1.67;;;14.90;99.90;;;;;;5073284;28;20496;-57
2021/08/04 00:15:42;;;;;;;1.83;1.63;;;15.10;99.90;;;;;;5074007;28;20462;-57
2021/08/04 00:18:09;;;;;;;3.13;1.73;;;14.90;99.90;;;;;;5073840;28;20455;-57
2021/08/04 00:20:36;;;;;;;2.20;1.40;;;14.90;99.90;;;;;;5073799;28;20447;-57
2021/08/04 00:23:03;;;;;;;2.13;1.90;;;15.00;99.90;;;;;;5073474;28;20504;-57
2021/08/04 00:25:32;;;;;;;1.60;1.50;;;15.00;99.90;;;;;;5073220;28;20485;-58
2021/08/04 00:27:59;;;;;;;2.07;1.87;;;14.90;99.90;;;;;;5073708;28;20451;-57
2021/08/04 00:30:26;;;;;;;2.40;1.60;;;14.80;99.90;;;;;;5073578;28;20830;-57
2021/08/04 00:32:54;;;;;;;1.97;1.60;;;14.80;99.90;;;;;;5073599;28;20500;-57
2021/08/04 00:35:21;;;;;;;2.00;1.80;;;14.60;99.90;;;;;;5073760;28;20470;-57
2021/08/04 00:37:48;;;;;;;3.40;1.80;;;14.70;99.90;;;;;;5073305;28;20581;-57
2021/08/04 00:40:15;;;;;;;1.70;1.60;;;14.90;99.90;;;;;;5073862;28;20442;-57
2021/08/04 00:42:44;;;;;;;1.90;1.80;;;14.90;99.90;;;;;;5072544;28;20439;-57
2021/08/04 00:45:12;;;;;;;2.40;2.00;;;15.00;99.90;;;;;;5073269;28;20490;-57
2021/08/04 00:47:39;;;;;;;2.10;1.90;;;14.70;99.90;;;;;;5073196;28;20451;-57
2021/08/04 00:50:07;;;;;;;2.00;1.90;;;14.50;99.90;;;;;;5073484;28;20936;-57
2021/08/04 00:52:34;;;;;;;2.17;1.90;;;14.50;99.90;;;;;;5072968;28;20528;-57
2021/08/04 00:55:01;;;;;;;3.40;2.20;;;14.60;99.90;;;;;;5072553;28;20443;-57
2021/08/04 00:57:28;;;;;;;4.10;2.83;;;14.70;99.90;;;;;;5072806;28;20454;-57
2021/08/04 00:59:56;;;;;;;2.80;2.00;;;14.80;99.90;;;;;;5073274;28;20488;-57
2021/08/04 01:02:30;;;;;;;2.13;1.90;;;14.80;99.90;;;;;;5072392;28;20944;-58
2021/08/04 01:05:01;;;;;;;1.93;1.70;;;14.90;99.90;;;;;;5073154;28;20482;-58
2021/08/04 01:07:32;;;;;;;5.23;2.33;;;15.00;99.90;;;;;;5073065;28;20949;-57
2021/08/04 01:10:06;;;;;;;1.93;1.83;;;15.00;99.90;;;;;;5072767;28;20466;-57
2021/08/04 01:12:38;;;;;;;2.30;2.10;;;14.80;99.90;;;;;;5072220;28;20450;-57
2021/08/04 01:15:08;;;;;;;2.90;2.00;;;14.90;99.90;;;;;;5072252;28;20451;-57
2021/08/04 01:17:37;;;;;;;2.73;2.30;;;14.90;99.90;;;;;;5072685;28;20504;-57
2021/08/04 01:20:11;;;;;;;2.10;1.83;;;15.00;99.90;;;;;;5072348;28;20492;-57
2021/08/04 01:22:50;;;;;;;3.50;2.00;;;14.90;99.90;;;;;;5072261;28;20941;-57
2021/08/04 01:25:19;;;;;;;2.40;1.77;;;14.90;99.90;;;;;;5072552;28;20585;-57
2021/08/04 01:27:50;;;;;;;2.17;1.97;;;14.90;99.90;;;;;;5072595;28;20528;-57
2021/08/04 01:30:17;;;;;;;3.67;1.70;;;14.90;99.90;;;;;;5072852;28;20512;-57
2021/08/04 01:32:44;;;;;;;3.37;2.23;;;15.00;99.90;;;;;;5072317;28;20443;-57
2021/08/04 01:35:12;;;;;;;2.50;1.70;;;15.00;99.90;;;;;;5071900;28;21064;-58
2021/08/04 01:37:41;;;;;;;2.77;2.10;;;15.00;99.90;;;;;;5072196;28;20447;-58
2021/08/04 01:40:11;;;;;;;3.30;2.30;;;15.00;99.90;;;;;;5072752;28;20537;-57
2021/08/04 01:42:39;;;;;;;2.17;1.77;;;15.00;99.90;;;;;;5071629;28;20459;-57
2021/08/04 01:45:09;;;;;;;4.33;2.33;;;15.00;99.90;;;;;;5071782;28;21012;-57
2021/08/04 01:47:37;;;;;;;5.90;2.30;;;15.00;99.90;;;;;;5071885;28;20455;-57
2021/08/04 01:50:05;;;;;;;2.50;2.30;;;15.00;99.90;;;;;;5072002;28;20450;-58
2021/08/04 01:52:33;;;;;;;2.57;2.37;;;15.10;99.90;;;;;;5070792;28;20451;-57
2021/08/04 01:55:01;;;;;;;2.40;2.20;;;15.00;99.90;;;;;;5072152;28;20881;-57
2021/08/04 01:57:28;;;;;;;2.23;2.00;;;14.90;99.90;;;;;;5071441;28;20450;-57
2021/08/04 01:59:55;;;;;;;2.83;2.27;;;14.90;99.90;;;;;;5072366;28;20455;-57
2021/08/04 02:02:24;;;;;;;2.83;2.30;;;14.90;99.90;;;;;;5071324;28;20443;-57
2021/08/04 02:04:52;;;;;;;2.57;2.37;;;14.90;99.90;;;;;;5071646;28;20552;-57
2021/08/04 02:07:32;;;;;;;4.47;2.50;;;14.90;99.90;;;;;;5071578;28;20542;-57
2021/08/04 02:10:03;;;;;;;2.47;2.20;;;14.80;99.90;;;;;;5052068;28;20937;-57
2021/08/04 02:12:31;;;;;;;2.30;2.03;;;14.80;99.90;;;;;;5060484;28;20443;-57
2021/08/04 02:15:02;;;;;;;3.17;2.70;;;14.80;99.90;;;;;;5071341;28;20443;-57
2021/08/04 02:17:36;;;;;;;6.00;2.70;;;14.80;99.90;;;;;;5071306;28;20462;-57
2021/08/04 02:20:08;;;;;;;4.10;2.30;;;14.80;99.90;;;;;;5072082;28;20512;-57
2021/08/04 02:22:42;;;;;;;3.23;2.83;;;14.80;99.90;;;;;;5071061;28;20530;-57
2021/08/04 02:25:14;;;;;;;2.53;2.23;;;14.70;99.90;;;;;;5071589;28;20490;-57
2021/08/04 02:27:42;;;;;;;2.40;2.20;;;14.70;99.90;;;;;;5070327;28;20797;-57
2021/08/04 02:30:12;;;;;;;3.43;2.53;;;14.70;99.90;;;;;;5071142;28;20443;-57
2021/08/04 02:32:41;;;;;;;2.10;1.80;;;14.70;99.90;;;;;;5069869;28;20447;-57
2021/08/04 02:35:09;;;;;;;4.43;2.37;;;14.70;99.90;;;;;;5070767;28;20443;-57
2021/08/04 02:37:37;;;;;;;2.90;2.50;;;14.70;99.90;;;;;;5070590;28;20461;-57
2021/08/04 02:40:05;;;;;;;3.20;2.77;;;14.60;99.90;;;;;;5070842;28;20459;-57
2021/08/04 02:42:34;;;;;;;2.87;2.53;;;14.60;99.90;;;;;;5069767;28;20956;-57
2021/08/04 02:45:02;;;;;;;2.90;2.70;;;14.50;99.90;;;;;;5070039;28;20478;-57
2021/08/04 02:47:30;;;;;;;4.20;2.87;;;14.60;99.90;;;;;;5070786;28;20476;-57
2021/08/04 02:49:59;;;;;;;4.17;2.43;;;14.60;99.90;;;;;;5070233;28;20455;-57
2021/08/04 02:52:27;;;;;;;5.50;3.13;;;14.60;99.90;;;;;;5069315;28;20882;-57
2021/08/04 02:54:54;;;;;;;3.03;2.73;;;14.50;99.90;;;;;;5071063;28;20944;-58
2021/08/04 02:57:21;;;;;;;5.20;3.00;;;14.50;99.90;;;;;;5070319;28;20508;-57
2021/08/04 02:59:48;;;;;;;3.90;3.40;;;14.50;99.90;;;;;;5069367;28;20508;-57
2021/08/04 03:02:15;;;;;;;3.43;2.93;;;14.50;99.90;;;;;;5069659;28;20454;-57
2021/08/04 03:04:42;;;;;;;3.83;3.40;;;14.50;99.90;;;;;;5070400;28;20532;-57
2021/08/04 03:07:10;;;;;;;3.80;3.37;;;14.50;99.90;;;;;;5070472;28;20899;-57
2021/08/04 03:09:37;;;;;;;3.77;3.30;;;14.50;99.90;;;;;;5069626;28;20519;-57
2021/08/04 03:12:08;;;;;;;3.70;3.03;;;14.50;99.90;;;;;;5069653;28;20504;-57
2021/08/04 03:14:35;;;;;;;3.50;3.17;;;14.50;99.90;;;;;;5064916;28;20944;-57
2021/08/04 03:17:02;;;;;;;5.43;3.67;;;14.50;99.90;;;;;;5070422;28;20470;-57
2021/08/04 03:19:29;;;;;;;4.23;3.50;;;14.60;99.90;;;;;;5072702;28;20952;-57
2021/08/04 03:21:56;;;;;;;3.37;3.03;;;14.60;99.90;;;;;;5073388;28;20945;-57
2021/08/04 03:24:24;;;;;;;3.73;3.07;;;14.60;99.90;;;;;;5073632;28;20482;-57
2021/08/04 03:26:51;;;;;;;3.80;3.33;;;14.60;99.90;;;;;;5053974;22;1253594;-51
2021/08/04 03:29:18;;;;;;;3.37;3.07;;;14.60;99.90;;;;;;5074745;28;20197;-51
2021/08/04 03:31:45;;;;;;;5.77;2.80;;;14.50;99.90;;;;;;5077450;28;20499;-50
2021/08/04 03:34:12;;;;;;;3.47;3.03;;;14.50;99.90;;;;;;5077371;28;21211;-51
2021/08/04 03:36:39;;;;;;;3.83;3.03;;;14.50;99.90;;;;;;5075029;28;20532;-51
2021/08/04 03:39:06;;;;;;;4.67;3.03;;;14.50;99.90;;;;;;5063395;28;20481;-50
2021/08/04 03:41:35;;;;;;;3.73;2.77;;;14.50;99.90;;;;;;5061426;28;20443;-51
2021/08/04 03:44:02;;;;;;;3.20;2.90;;;14.40;99.90;;;;;;5073407;28;20511;-51
2021/08/04 03:46:29;;;;;;;3.43;2.87;;;14.50;99.90;;;;;;5074513;28;21269;-51
2021/08/04 03:48:56;;;;;;;3.57;2.80;;;14.50;99.90;;;;;;5074028;28;20443;-51
2021/08/04 03:51:23;;;;;;;3.20;2.80;;;14.50;99.90;;;;;;5074200;28;20498;-51
2021/08/04 03:53:50;;;;;;;4.03;3.10;;;14.50;99.90;;;;;;5073817;28;20890;-51
2021/08/04 03:56:17;;;;;;;4.80;3.10;;;14.60;99.90;;;;;;5074365;28;20520;-51
2021/08/04 03:58:45;;;;;;;3.57;3.00;;;14.60;99.90;;;;;;5066602;28;20447;-51
2021/08/04 04:01:12;;;;;;;6.13;4.20;;;14.50;99.90;;;;;;5068632;28;20458;-50
2021/08/04 04:03:39;;;;;;;3.80;3.33;;;14.60;99.90;;;;;;5073463;28;20451;-51
2021/08/04 04:06:06;;;;;;;4.20;3.80;;;14.60;99.90;;;;;;5074137;28;20486;-50
2021/08/04 04:08:33;;;;;;;3.73;3.40;;;14.60;99.90;;;;;;5068109;28;20448;-51
2021/08/04 04:11:00;;;;;;;5.10;4.00;;;14.50;99.90;;;;;;5073946;28;20454;-50
2021/08/04 04:13:28;;;;;;;5.97;3.60;;;14.60;99.90;;;;;;5073924;28;20951;-51
2021/08/04 04:15:56;;;;;;;4.67;4.17;;;14.60;99.90;;;;;;5074296;28;20459;-51
2021/08/04 04:18:23;;;;;;;6.43;4.33;;;14.70;99.90;;;;;;5072624;28;20507;-51
2021/08/04 04:20:50;;;;;;;5.53;4.80;;;14.70;99.90;;;;;;5063224;28;20500;-51
2021/08/04 04:23:17;;;;;;;5.10;4.37;;;14.70;99.90;;;;;;5053808;28;20451;-50
2021/08/04 04:25:44;;;;;;;6.40;4.57;;;14.70;99.90;;;;;;5053582;28;20515;-51
2021/08/04 04:28:11;;;;;;;6.30;4.97;;;14.80;99.90;;;;;;5054153;28;20452;-51
2021/08/04 04:30:38;;;;;;;6.60;5.53;;;14.80;99.90;;;;;;5052775;28;20447;-51
2021/08/04 04:33:07;;;;;;;8.03;5.20;;;14.70;99.90;;;;;;5053743;28;20444;-51
2021/08/04 04:35:34;;;;;;;5.57;4.67;;;14.70;99.90;;;;;;5061935;28;20820;-51
2021/08/04 04:38:01;;;;;;;6.00;4.60;;;14.80;99.90;;;;;;5073772;28;20945;-51
2021/08/04 04:40:28;;;;;;;4.77;4.30;;;14.80;99.90;;;;;;5073523;28;20447;-51
2021/08/04 04:42:55;;;;;;;7.50;5.07;;;14.80;99.90;;;;;;5073743;28;20455;-53
2021/08/04 04:45:22;;;;;;;6.53;4.90;;;14.80;99.90;;;;;;5066819;28;21054;-52
2021/08/04 04:47:49;;;;;;;5.30;4.10;;;14.80;99.90;;;;;;5053960;28;20883;-53
2021/08/04 04:50:17;;;;;;;5.27;4.77;;;14.90;99.90;;;;;;5053646;28;20451;-51
2021/08/04 04:52:44;;;;;;;5.70;4.10;;;14.90;99.90;;;;;;5053797;28;20448;-52
2021/08/04 04:55:13;;;;;;;5.37;4.13;;;15.00;99.90;;;;;;5056559;28;20810;-52
2021/08/04 04:57:40;;;;;;;6.37;4.83;;;14.90;99.90;;;;;;5063392;28;20526;-52
2021/08/04 05:00:09;;;;;;;6.37;4.90;;;14.90;99.90;;;;;;5068549;28;20870;-54
2021/08/04 05:02:38;;;;;;;6.93;5.60;;;14.90;99.90;;;;;;5053118;28;20513;-51
2021/08/04 05:05:05;;;;;;;5.20;4.23;;;14.80;99.90;;;;;;5068238;28;20578;-52
2021/08/04 05:07:34;;;;;;;7.30;5.50;;;14.80;99.90;;;;;;5064971;28;20520;-52
2021/08/04 05:10:01;;;;;;;7.60;4.87;;;14.90;99.90;;;;;;5073271;28;20508;-52
2021/08/04 05:12:29;;;;;;;8.03;5.50;;;14.90;99.90;;;;;;5072973;28;20446;-52
2021/08/04 05:14:56;;;;;;;6.30;5.03;;;14.90;99.90;;;;;;5072387;28;20450;-53
2021/08/04 05:17:23;;;;;;;5.87;4.50;;;15.00;99.90;;;;;;5071743;28;20462;-52
2021/08/04 05:19:51;;;;;;;5.60;4.73;;;15.00;99.90;;;;;;5072870;28;20511;-53
2021/08/04 05:22:18;;;;;;;5.57;4.47;;;15.00;99.90;;;;;;5072814;28;20451;-52
2021/08/04 05:24:47;;;;;;;7.50;5.00;;;14.90;99.90;;;;;;5072468;28;20500;-52
2021/08/04 05:27:14;;;;;;;6.07;4.63;;;14.90;99.90;;;;;;5061241;28;20478;-53
2021/08/04 05:29:40;;;;;;;6.87;4.77;;;14.90;99.90;;;;;;5062131;28;21008;-53
2021/08/04 05:32:10;;;;;;;5.70;4.53;;;14.90;99.90;;;;;;5071284;28;21132;-51
2021/08/04 05:34:37;;;;;;;6.70;4.60;;;14.90;99.90;;;;;;5066487;28;20478;-52
2021/08/04 05:37:05;;;;;;;7.77;4.43;;;14.90;99.90;;;;;;5071578;28;20475;-53
2021/08/04 05:39:32;;;;;;;4.33;3.83;;;15.00;99.90;;;;;;5072039;28;20443;-52
2021/08/04 05:42:00;;;;;;;4.90;3.83;;;15.00;99.90;;;;;;5054196;28;20930;-53
2021/08/04 05:44:27;;;;;;;4.03;3.43;;;15.00;99.90;;;;;;5058625;28;20452;-52
2021/08/04 05:46:54;;;;;;;4.97;3.20;;;14.90;99.90;;;;;;5052569;28;20541;-52
2021/08/04 05:49:22;;;;;;;3.87;3.10;;;14.90;99.90;;;;;;5052448;28;20509;-52
2021/08/04 05:51:51;;;;;;;6.57;2.90;;;14.90;99.90;;;;;;5052436;28;20452;-52
2021/08/04 05:54:18;;;;;;;3.70;3.10;;;14.90;99.90;;;;;;5061769;28;20462;-52
2021/08/04 05:56:45;;;;;;;3.17;2.87;;;14.90;99.90;;;;;;5066519;28;20518;-52
2021/08/04 05:59:13;;;;;;;3.57;3.00;;;14.80;99.90;;;;;;5052186;28;20501;-52
2021/08/04 06:01:40;;;;;;;3.80;3.20;;;14.80;99.90;;;;;;5052141;28;20448;-52
2021/08/04 06:04:07;;;;;;;4.00;3.30;;;14.80;99.90;;;;;;5059962;28;20450;-52
2021/08/04 06:06:34;;;;;;;4.67;2.97;;;14.80;99.90;;;;;;5067599;28;20553;-52
2021/08/04 06:09:01;;;;;;;3.90;2.80;;;14.90;99.90;;;;;;5069774;28;20948;-52
2021/08/04 06:11:28;;;;;;;6.23;3.30;;;14.90;99.90;;;;;;5067288;28;20502;-52
2021/08/04 06:13:55;;;;;;;4.10;3.60;;;14.90;99.90;;;;;;5057458;28;20512;-52
2021/08/04 06:16:23;;;;;;;4.77;4.20;;;14.90;99.90;;;;;;5072097;28;20462;-52
2021/08/04 06:18:50;;;;;;;5.07;4.03;;;14.80;99.90;;;;;;5072020;28;20447;-52
2021/08/04 06:21:17;;;;;;;4.63;3.83;;;15.00;99.90;;;;;;5071987;28;20443;-53
2021/08/04 06:23:47;;;;;;;6.20;4.30;;;14.90;99.90;;;;;;5071135;28;20447;-52
2021/08/04 06:26:14;;;;;;;4.47;4.07;;;15.00;99.90;;;;;;5070854;28;21027;-51
2021/08/04 06:28:42;;;;;;;5.30;4.03;;;14.90;99.90;;;;;;5071984;28;20459;-52
2021/08/04 06:31:09;;;;;;;6.03;4.07;;;14.90;99.90;;;;;;5062607;28;20443;-51
2021/08/04 06:33:37;;;;;;;6.67;4.40;;;14.90;99.90;;;;;;5054127;28;20455;-53
2021/08/04 06:36:05;;;;;;;4.97;4.23;;;15.00;99.90;;;;;;5071694;28;20520;-52
2021/08/04 06:38:32;;;;;;;6.10;4.07;;;15.00;99.90;;;;;;5071816;28;20877;-53
2021/08/04 06:40:59;;;;;;;5.47;4.57;;;15.00;99.90;;;;;;5071933;28;20447;-51
2021/08/04 06:43:26;;;;;;;5.90;4.60;;;15.10;99.90;;;;;;5061875;28;20445;-53
2021/08/04 06:45:53;;;;;;;6.50;4.80;;;15.10;99.90;;;;;;5071427;28;20494;-52
2021/08/04 06:48:20;;;;;;;6.00;4.50;;;15.00;99.90;;;;;;5071751;28;20492;-53
2021/08/04 06:50:48;;;;;;;5.47;4.83;;;15.00;99.90;;;;;;5070804;28;20500;-52
2021/08/04 06:53:15;;;;;;;5.83;5.00;;;15.10;99.90;;;;;;5071487;28;20512;-53
2021/08/04 06:55:42;;;;;;;5.20;4.67;;;15.20;99.90;;;;;;5063504;28;21068;-53
2021/08/04 06:58:09;;;;;;;6.57;5.33;;;15.20;99.90;;;;;;5069664;28;20509;-52
2021/08/04 07:00:36;;;;;;;6.90;5.50;;;15.30;99.90;;;;;;5072860;28;20450;-53
2021/08/04 07:03:03;;;;;;;8.07;4.87;;;15.30;99.90;;;;;;5073219;28;20520;-53
2021/08/04 07:05:30;;;;;;;8.50;5.60;;;15.40;99.90;;;;;;5075382;28;20541;-52
2021/08/04 07:07:59;;;;;;;7.30;5.20;;;15.50;99.90;;;;;;5074316;28;20449;-51
2021/08/04 07:10:26;;;;;;;5.43;4.60;;;15.50;99.90;;;;;;5073876;28;20450;-54
2021/08/04 07:12:53;;;;;;;5.37;4.60;;;15.70;99.90;;;;;;5066685;28;20450;-52
2021/08/04 07:15:21;;;;;;;3.93;3.53;;;15.70;99.90;;;;;;5075341;28;20538;-53
2021/08/04 07:17:50;;;;;;;3.43;3.13;;;15.70;99.90;;;;;;5074996;28;20451;-52
2021/08/04 07:20:18;;;;;;;5.70;3.33;;;15.60;99.90;;;;;;5074839;28;20455;-53
2021/08/04 07:22:46;;;;;;;3.23;2.93;;;15.50;99.90;;;;;;5073492;28;20512;-52
2021/08/04 07:25:15;;;;;;;3.90;3.07;;;15.50;99.90;;;;;;5061522;28;20444;-53
2021/08/04 07:27:42;;;;;;;4.00;3.00;;;15.50;99.90;;;;;;5065968;28;20948;-52
2021/08/04 07:30:11;;;;;;;3.17;2.87;;;15.60;99.90;;;;;;5074454;28;20454;-52
2021/08/04 07:32:39;;;;;;;3.10;2.47;;;15.70;99.90;;;;;;5065149;28;20443;-52
2021/08/04 07:35:08;;;;;;;2.70;2.33;;;15.80;99.90;;;;;;5058459;28;20539;-52
2021/08/04 07:37:36;;;;;;;2.70;2.50;;;16.00;99.90;;;;;;5069507;28;20828;-51
2021/08/04 07:40:05;;;;;;;4.00;2.50;;;16.00;99.90;;;;;;5059819;28;20459;-53
2021/08/04 07:42:33;;;;;;;4.20;2.93;;;16.10;99.90;;;;;;5074781;28;20447;-52
2021/08/04 07:45:02;;;;;;;2.93;2.60;;;16.10;99.90;;;;;;5067943;28;20443;-53
2021/08/04 07:47:29;;;;;;;2.93;2.67;;;16.20;99.90;;;;;;5069033;28;20486;-53
2021/08/04 07:49:56;;;;;;;2.67;2.47;;;16.40;99.90;;;;;;5067311;28;20829;-51
2021/08/04 07:52:23;;;;;;;2.90;2.53;;;16.60;99.90;;;;;;5074571;28;20454;-54
2021/08/04 07:54:50;;;;;;;2.97;2.67;;;16.70;99.90;;;;;;5074763;28;20446;-52
2021/08/04 07:57:17;;;;;;;3.00;2.70;;;16.90;99.90;;;;;;5066426;28;20568;-52
2021/08/04 07:59:45;;;;;;;3.27;2.70;;;17.10;99.90;;;;;;5071438;28;20205;-52
2021/08/04 08:02:12;;;;;;;3.53;2.73;;;17.50;99.90;;;;;;5073763;28;20455;-53
2021/08/04 08:04:39;;;;;;;2.80;2.60;;;17.50;99.90;;;;;;5071764;28;20876;-53
2021/08/04 08:07:10;;;;;;;3.60;2.77;;;17.70;99.90;;;;;;5063814;28;20483;-52
2021/08/04 08:09:37;;;;;;;2.90;2.57;;;17.80;99.90;;;;;;5058720;28;20454;-52
2021/08/04 08:12:08;;;;;;;2.43;2.17;;;18.00;99.90;;;;;;5070429;28;20896;-53
2021/08/04 08:14:35;;;;;;;3.47;3.17;;;18.20;99.90;;;;;;5069676;28;20468;-50
2021/08/04 08:17:04;;;;;;;3.20;2.90;;;17.90;99.90;;;;;;5074223;28;20474;-52
2021/08/04 08:19:32;;;;;;;3.80;2.40;;;18.00;99.90;;;;;;5074248;28;20451;-51
2021/08/04 08:22:00;;;;;;;2.67;2.40;;;18.10;99.90;;;;;;5073230;28;20482;-53
2021/08/04 08:24:27;;;;;;;2.97;2.50;;;18.40;99.90;;;;;;5073926;28;20514;-52
2021/08/04 08:26:54;;;;;;;3.17;2.40;;;18.50;99.90;;;;;;5068018;28;20487;-53
2021/08/04 08:29:21;;;;;;;2.60;2.40;;;18.80;99.90;;;;;;5054060;28;20443;-51
2021/08/04 08:31:48;;;;;;;2.53;2.10;;;18.80;99.90;;;;;;5054130;28;20448;-52
2021/08/04 08:34:16;;;;;;;1.93;1.83;;;19.00;99.90;;;;;;5065191;28;20459;-51
2021/08/04 08:36:43;;;;;;;2.30;2.10;;;18.80;99.90;;;;;;5065122;28;20463;-52
2021/08/04 08:39:11;;;;;;;2.50;2.30;;;19.00;99.90;;;;;;5072365;28;20517;-53
2021/08/04 08:41:38;;;;;;;3.73;2.20;;;19.30;99.90;;;;;;5072880;28;20458;-52
2021/08/04 08:44:09;;;;;;;3.13;2.30;;;19.40;99.90;;;;;;5069649;28;20446;-52
2021/08/04 08:46:36;;;;;;;1.90;1.73;;;19.60;99.90;;;;;;5055894;28;20484;-51
2021/08/04 08:49:04;;;;;;;2.00;1.83;;;19.60;99.90;;;;;;5053541;28;20517;-52
2021/08/04 08:51:32;;;;;;;2.20;2.00;;;19.30;99.90;;;;;;5053616;28;20543;-52
2021/08/04 08:53:59;;;;;;;3.17;1.80;;;19.40;99.90;;;;;;5053388;28;20502;-52
2021/08/04 08:56:27;;;;;;;1.87;1.77;;;19.40;99.90;;;;;;5053559;28;20463;-52
2021/08/04 08:58:55;;;;;;;2.10;1.70;;;19.40;99.90;;;;;;5053299;28;20950;-52
2021/08/04 09:01:33;;;;;;;3.83;2.07;;;19.30;99.90;;;;;;5072462;28;20512;-52
2021/08/04 09:04:03;;;;;;;2.13;1.90;;;19.30;99.90;;;;;;5062488;28;20498;-52
2021/08/04 09:06:43;;;;;;;1.80;1.70;;;19.30;99.90;;;;;;5063984;28;21054;-52
2021/08/04 09:09:14;;;;;;;2.33;2.13;;;19.20;99.90;;;;;;5073259;28;20462;-52
2021/08/04 09:11:41;;;;;;;2.10;1.90;;;19.30;99.90;;;;;;5073181;28;20454;-53
2021/08/04 09:14:08;;;;;;;2.17;1.97;;;18.90;99.90;;;;;;5063804;28;20871;-52
2021/08/04 09:16:39;;;;;;;1.80;1.70;;;19.10;99.90;;;;;;5069215;28;20470;-54
2021/08/04 09:19:19;;;;;;;2.53;1.90;;;19.10;99.90;;;;;;5053364;28;20448;-52
2021/08/04 09:22:04;;;;;;;2.70;1.70;;;19.20;99.90;;;;;;5064623;28;20451;-52
2021/08/04 09:25:03;;;;;;;1.87;1.77;;;19.30;99.90;;;;;;5058315;28;20882;-53
2021/08/04 09:27:44;;;;;;;1.80;1.70;;;19.20;99.90;;;;;;5091649;22;20490;-58
2021/08/04 09:30:13;;;;;;;2.87;1.70;;;18.90;99.90;;;;;;5072494;28;20496;-57
2021/08/04 09:32:40;;;;;;;2.23;2.00;;;18.80;99.90;;;;;;5052282;28;20844;-57
2021/08/04 09:35:10;;;;;;;1.80;1.70;;;18.70;99.90;;;;;;5071980;28;20455;-58
2021/08/04 09:37:39;;;;;;;1.93;1.70;;;18.60;99.90;;;;;;5071654;28;20470;-58
2021/08/04 09:40:08;;;;;;;1.83;1.60;;;18.70;99.90;;;;;;5072169;28;20504;-58
2021/08/04 09:42:43;;;;;;;1.57;1.47;;;18.70;99.90;;;;;;5072097;28;20446;-58
2021/08/04 09:45:11;;;;;;;2.97;1.50;;;18.80;99.90;;;;;;5071486;28;20458;-58
2021/08/04 09:47:38;;;;;;;2.20;1.63;;;18.80;99.90;;;;;;5071739;28;20502;-58
2021/08/04 09:50:08;;;;;;;1.50;1.40;;;18.80;99.90;;;;;;5071984;28;20446;-58
2021/08/04 09:52:36;;;;;;;1.33;1.20;;;18.70;99.90;;;;;;5071883;28;21002;-57
2021/08/04 09:55:16;;;;;;;1.73;1.33;;;18.90;99.90;;;;;;5071269;28;20454;-58
2021/08/04 09:57:44;;;;;;;1.80;1.27;;;19.10;99.90;;;;;;5071898;28;20463;-58
2021/08/04 10:00:14;;;;;;;1.50;1.40;;;19.00;99.90;;;;;;5071302;28;20511;-58
2021/08/04 10:02:41;;;;;;;1.67;1.43;;;19.10;99.90;;;;;;5067280;28;20653;-57
2021/08/04 10:05:19;;;;;;;1.60;1.50;;;19.20;99.90;;;;;;5061398;28;20454;-58
2021/08/04 10:08:08;;;;;;;1.33;1.10;;;19.40;99.90;;;;;;5051774;28;20735;-58
2021/08/04 10:10:38;;;;;;;2.13;1.40;;;19.60;99.90;;;;;;5047759;28;20472;-59
2021/08/04 10:13:07;;;;;;;1.87;1.10;;;19.60;99.90;;;;;;5051733;28;20428;-58
2021/08/04 10:15:40;;;;;;;2.57;1.47;;;19.60;99.90;;;;;;5071700;28;20443;-58
2021/08/04 10:18:11;;;;;;;1.70;1.20;;;19.40;99.90;;;;;;5071063;28;20486;-57
2021/08/04 10:20:39;;;;;;;1.30;1.20;;;19.30;99.90;;;;;;5071134;28;20447;-58
2021/08/04 10:23:07;;;;;;;2.10;1.27;;;19.30;99.90;;;;;;5070972;28;20442;-58
2021/08/04 10:25:36;;;;;;;2.37;1.40;;;19.20;99.90;;;;;;5071322;28;20824;-58
2021/08/04 10:28:05;;;;;;;1.90;1.17;;;19.10;99.90;;;;;;5071151;28;20498;-58
2021/08/04 10:30:33;;;;;;;1.50;1.10;;;19.20;99.90;;;;;;5068932;28;20528;-58
2021/08/04 10:33:00;;;;;;;2.30;1.03;;;19.10;99.90;;;;;;5051418;28;20505;-58
2021/08/04 10:35:28;;;;;;;1.20;1.10;;;19.30;99.90;;;;;;5070802;28;21057;-58
2021/08/04 10:37:55;;;;;;;1.20;1.10;;;19.20;99.90;;;;;;5070972;28;21025;-58
2021/08/04 10:40:26;;;;;;;3.90;1.40;;;19.20;99.90;;;;;;5071586;28;20447;-58
2021/08/04 10:42:54;;;;;;;1.40;1.30;;;19.00;99.90;;;;;;5071006;28;20447;-57
2021/08/04 10:45:36;;;;;;;1.20;1.10;;;19.00;99.90;;;;;;5069177;28;20511;-57
2021/08/04 10:48:24;;;;;;;2.50;1.50;;;19.20;99.90;;;;;;5070972;28;20486;-57
2021/08/04 10:51:16;;;;;;;2.10;1.97;;;19.00;99.90;;;;;;5064388;28;20447;-57
2021/08/04 10:54:18;;;;;;;1.20;1.10;;;19.20;99.90;;;;;;5042666;28;20493;-58
2021/08/04 10:57:08;;;;;;;1.80;1.70;;;19.20;99.90;;;;;;5065389;28;21005;-58
2021/08/04 10:59:37;;;;;;;1.77;1.40;;;19.20;99.90;;;;;;5071330;28;20538;-58
2021/08/04 11:02:29;;;;;;;1.77;1.63;;;19.30;99.90;;;;;;5062408;28;20463;-58
2021/08/04 11:04:56;;;;;;;1.60;1.50;;;19.20;99.90;;;;;;5057979;28;20535;-58
2021/08/04 11:07:25;;;;;;;1.47;1.30;;;19.10;99.90;;;;;;5055197;28;20886;-58
2021/08/04 11:10:01;;;;;;;1.60;1.50;;;19.00;99.90;;;;;;5058162;28;20485;-58
2021/08/04 11:12:45;;;;;;;1.50;1.40;;;19.00;99.90;;;;;;5051259;28;20498;-58
2021/08/04 11:15:37;;;;;;;1.40;1.30;;;18.90;99.90;;;;;;5051017;28;20462;-58
2021/08/04 11:18:10;;;;;;;2.20;1.30;;;19.00;99.90;;;;;;5050926;28;20443;-58
2021/08/04 11:20:40;;;;;;;2.20;1.70;;;19.00;99.90;;;;;;5063292;28;20450;-57
2021/08/04 11:23:09;;;;;;;1.83;1.63;;;19.10;99.90;;;;;;5070813;28;20442;-58
2021/08/04 11:25:44;;;;;;;2.10;1.67;;;19.10;99.90;;;;;;5070616;28;20442;-57
2021/08/04 11:28:16;;;;;;;5.73;2.07;;;19.30;99.90;;;;;;5070882;28;20478;-57
2021/08/04 11:30:48;;;;;;;1.87;1.77;;;19.20;99.90;;;;;;5070653;28;20882;-57
2021/08/04 11:33:32;;;;;;;1.60;1.50;;;19.30;99.90;;;;;;5070666;28;20446;-57
2021/08/04 11:36:08;;;;;;;2.03;1.53;;;19.30;99.90;;;;;;5071033;28;20984;-57
2021/08/04 11:38:41;;;;;;;1.50;1.40;;;19.30;99.90;;;;;;5071124;28;20442;-57
2021/08/04 11:41:20;;;;;;;2.63;1.77;;;19.20;99.90;;;;;;5070246;28;20449;-57
2021/08/04 11:43:48;;;;;;;3.17;1.33;;;19.20;99.90;;;;;;5074371;28;20500;-57
2021/08/04 11:46:39;;;;;;;1.57;1.47;;;19.30;99.90;;;;;;5074396;28;20467;-57
2021/08/04 11:49:12;;;;;;;1.60;1.40;;;19.50;99.90;;;;;;5073269;28;20446;-57
2021/08/04 11:51:42;;;;;;;1.97;1.50;;;19.70;99.90;;;;;;5073995;28;20454;-58
2021/08/04 11:54:10;;;;;;;1.97;1.43;;;19.90;99.90;;;;;;5062060;28;21019;-57
2021/08/04 11:56:44;;;;;;;1.80;1.67;;;20.00;99.90;;;;;;5054823;28;20475;-57
2021/08/04 11:59:11;;;;;;;2.40;1.60;;;20.10;99.90;;;;;;5054689;28;20534;-57
2021/08/04 12:01:39;;;;;;;2.20;1.50;;;20.00;99.90;;;;;;5072443;28;20508;-57
2021/08/04 12:04:11;;;;;;;2.77;1.57;;;20.00;99.90;;;;;;5074252;28;20504;-57
2021/08/04 12:06:40;;;;;;;1.80;1.70;;;20.30;99.90;;;;;;5059371;28;20509;-57
2021/08/04 12:09:21;;;;;;;1.40;1.30;;;20.50;99.90;;;;;;5059537;28;21007;-57
2021/08/04 12:11:49;;;;;;;1.97;1.50;;;20.60;99.90;;;;;;5073811;28;20538;-57
2021/08/04 12:14:18;;;;;;;1.60;1.50;;;20.70;99.90;;;;;;5073524;28;20516;-57
2021/08/04 12:16:48;;;;;;;1.80;1.70;;;20.50;99.90;;;;;;5073975;28;20987;-58
2021/08/04 12:19:36;;;;;;;1.80;1.70;;;20.30;99.90;;;;;;5067434;28;20440;-57
2021/08/04 12:22:06;;;;;;;1.43;1.30;;;20.10;99.90;;;;;;5053877;28;20551;-57
2021/08/04 12:24:43;;;;;;;2.30;1.70;;;20.00;99.90;;;;;;5054047;28;20448;-57
2021/08/04 12:27:14;;;;;;;1.90;1.57;;;20.00;99.90;;;;;;5053984;28;20541;-57
2021/08/04 12:29:41;;;;;;;2.50;1.70;;;19.80;99.90;;;;;;5055471;28;20947;-57
2021/08/04 12:32:19;;;;;;;1.70;1.33;;;19.60;99.90;;;;;;5067390;28;20454;-57
2021/08/04 12:34:52;;;;;;;1.60;1.50;;;19.50;99.90;;;;;;5073936;28;20461;-57
2021/08/04 12:37:20;;;;;;;2.07;1.63;;;19.40;99.90;;;;;;5073737;28;20493;-57
2021/08/04 12:39:47;;;;;;;1.50;1.40;;;19.40;99.90;;;;;;5063767;28;20520;-57
2021/08/04 12:42:14;;;;;;;1.57;1.43;;;19.40;99.90;;;;;;5073145;28;20571;-57
2021/08/04 12:44:42;;;;;;;1.93;1.73;;;19.50;99.90;;;;;;5073628;28;20997;-57
2021/08/04 12:47:16;;;;;;;1.80;1.67;;;19.10;99.90;;;;;;5062909;28;20479;-57
2021/08/04 12:49:44;;;;;;;2.37;1.40;;;19.20;99.90;;;;;;5070261;28;20450;-57
2021/08/04 12:52:15;;;;;;;2.10;1.90;;;19.10;99.90;;;;;;5052211;28;20501;-57
2021/08/04 12:54:42;;;;;;;1.63;1.50;;;19.10;99.90;;;;;;5062739;28;20804;-57
2021/08/04 12:57:24;;;;;;;1.87;1.70;;;18.90;99.90;;;;;;5072406;28;20554;-57
2021/08/04 12:59:51;;;;;;;1.90;1.80;;;19.00;99.90;;;;;;5072234;28;20462;-58